Time;durP1;ratioP1;P1;durP2;ratioP2;P2;SDS_P1;SDS_P2;PMS_P1;PMS_P2;Temp;Humidity;BMP_temperature;BMP_pressure;BME280_temperature;BME280_humidity;BME280_pressure;Samples;Min_cycle;Max_cycle;Signal;HPM_P1;HPM_P2
2023/09/02 00:00:19;;;;;;;8.05;4.85;;;;;;;16.11;100.00;101437.34;6329594;28;20051;-78
2023/09/02 00:03:20;;;;;;;7.57;5.13;;;;;;;16.07;100.00;101435.84;6330571;28;20063;-78
2023/09/02 00:06:22;;;;;;;7.32;4.65;;;;;;;16.14;100.00;101452.22;6329778;28;20045;-77
2023/09/02 00:09:23;;;;;;;11.13;4.60;;;;;;;16.08;100.00;101450.81;6329492;28;20351;-78
2023/09/02 00:12:25;;;;;;;8.68;3.70;;;;;;;16.01;100.00;101446.84;6330009;28;20075;-78
2023/09/02 00:15:27;;;;;;;6.75;4.43;;;;;;;15.97;100.00;101451.50;6330186;28;20055;-77
2023/09/02 00:18:29;;;;;;;7.60;4.72;;;;;;;15.93;100.00;101447.34;6328907;28;20054;-78
2023/09/02 00:21:33;;;;;;;8.82;4.53;;;;;;;15.96;100.00;101447.16;6329211;28;20105;-77
2023/09/02 00:24:34;;;;;;;7.22;4.45;;;;;;;15.87;100.00;101442.44;6328754;28;20509;-77
2023/09/02 00:27:36;;;;;;;9.45;5.57;;;;;;;15.84;100.00;101445.28;6328455;28;20052;-77
2023/09/02 00:30:39;;;;;;;8.55;4.35;;;;;;;15.82;100.00;101441.06;6328686;28;20049;-78
2023/09/02 00:33:40;;;;;;;5.93;3.88;;;;;;;15.86;100.00;101440.75;6328782;28;20056;-78
2023/09/02 00:36:42;;;;;;;7.18;4.10;;;;;;;15.88;100.00;101441.50;6327883;28;20048;-77
2023/09/02 00:39:43;;;;;;;6.88;4.03;;;;;;;15.82;100.00;101446.34;6327551;28;20040;-77
2023/09/02 00:42:47;;;;;;;8.23;4.60;;;;;;;15.82;100.00;101441.06;6327818;28;20047;-78
2023/09/02 00:45:50;;;;;;;11.43;4.43;;;;;;;15.79;100.00;101443.88;6327616;28;20567;-77
2023/09/02 00:48:51;;;;;;;8.90;4.93;;;;;;;15.76;100.00;101449.38;6327995;28;20051;-78
2023/09/02 00:51:52;;;;;;;7.93;4.40;;;;;;;15.73;100.00;101451.28;6327844;28;20055;-78
2023/09/02 00:54:54;;;;;;;10.32;5.50;;;;;;;15.72;100.00;101454.03;6327165;28;20036;-77
2023/09/02 00:57:59;;;;;;;11.93;4.75;;;;;;;15.69;100.00;101452.41;6327813;28;20048;-78
2023/09/02 01:01:03;;;;;;;7.82;4.15;;;;;;;15.70;100.00;101454.13;6327999;28;20113;-78
2023/09/02 01:04:05;;;;;;;10.05;4.55;;;;;;;15.65;100.00;101455.38;6327643;28;20750;-76
2023/09/02 01:07:08;;;;;;;9.13;4.90;;;;;;;15.68;100.00;101468.44;6327917;28;20055;-76
2023/09/02 01:10:10;;;;;;;7.03;4.63;;;;;;;15.68;100.00;101461.31;6332057;22;20345;-77
2023/09/02 01:13:12;;;;;;;7.45;4.78;;;;;;;15.72;100.00;101462.00;6302482;28;20048;-77
2023/09/02 01:16:14;;;;;;;9.68;4.00;;;;;;;15.64;100.00;101466.91;6302103;28;20368;-77
2023/09/02 01:19:18;;;;;;;7.22;5.18;;;;;;;15.63;100.00;101470.50;6302161;28;20055;-77
2023/09/02 01:22:41;;;;;;;13.43;4.97;;;;;;;15.64;100.00;101459.81;6302251;28;20361;-78
2023/09/02 01:26:08;;;;;;;8.75;5.05;;;;;;;15.67;100.00;101462.28;6301782;28;20052;-78
2023/09/02 01:29:18;;;;;;;8.40;4.65;;;;;;;15.62;100.00;101466.13;6294516;28;20048;-77
2023/09/02 01:32:19;;;;;;;;;;;;;;;15.64;100.00;101465.13;6302829;28;20052;-80
2023/09/02 01:35:28;;;;;;;6.18;4.40;;;;;;;15.62;100.00;101474.06;6301750;28;19944;-77
2023/09/02 01:38:32;;;;;;;7.80;4.60;;;;;;;15.60;100.00;101470.66;6301985;28;20411;-78
2023/09/02 01:41:33;;;;;;;7.00;4.05;;;;;;;15.59;100.00;101472.47;6301990;28;20055;-77
2023/09/02 01:44:37;;;;;;;7.47;4.20;;;;;;;15.53;100.00;101472.00;6301586;28;20048;-77
2023/09/02 01:47:39;;;;;;;10.68;4.90;;;;;;;15.52;100.00;101488.84;6301549;28;20055;-78
2023/09/02 01:50:43;;;;;;;8.73;4.60;;;;;;;15.56;100.00;101496.50;6282074;28;20060;-75
2023/09/02 01:53:45;;;;;;;8.30;4.80;;;;;;;15.63;100.00;101503.13;6290717;28;20048;-75
2023/09/02 01:56:47;;;;;;;7.00;3.80;;;;;;;15.63;100.00;101497.84;6298453;28;20040;-75
2023/09/02 01:59:50;;;;;;;9.75;5.47;;;;;;;15.64;100.00;101499.56;6293613;28;20435;-75
2023/09/02 02:02:53;;;;;;;8.15;4.50;;;;;;;15.71;100.00;101498.25;6301443;28;20052;-75
2023/09/02 02:05:59;;;;;;;9.60;4.05;;;;;;;15.71;100.00;101500.00;6298021;28;20040;-75
2023/09/02 02:09:05;;;;;;;9.45;5.07;;;;;;;15.67;100.00;101509.97;6301347;28;20056;-76
2023/09/02 02:12:08;;;;;;;10.93;4.68;;;;;;;15.63;100.00;101507.59;6301314;28;20055;-75
2023/09/02 02:15:12;;;;;;;5.65;3.22;;;;;;;15.65;100.00;101506.56;6300761;28;20041;-76
2023/09/02 02:18:13;;;;;;;11.75;4.00;;;;;;;15.65;100.00;101503.06;6286535;28;20107;-75
2023/09/02 02:21:15;;;;;;;12.55;5.47;;;;;;;15.67;100.00;101507.34;6288968;28;20152;-75
2023/09/02 02:24:16;;;;;;;7.45;4.00;;;;;;;15.60;100.00;101503.31;6300384;28;20372;-75
2023/09/02 02:27:17;;;;;;;9.52;5.35;;;;;;;15.58;100.00;101512.28;6300513;28;20329;-74
2023/09/02 02:30:20;;;;;;;9.70;4.88;;;;;;;15.56;100.00;101509.75;6300000;28;20368;-78
2023/09/02 02:33:22;;;;;;;7.55;4.43;;;;;;;15.60;100.00;101510.41;6287218;28;20040;-74
2023/09/02 02:36:23;;;;;;;8.15;4.53;;;;;;;15.60;100.00;101513.91;6288002;28;20450;-79
2023/09/02 02:39:25;;;;;;;7.15;4.60;;;;;;;15.60;100.00;101513.06;6287495;28;20055;-76
2023/09/02 02:42:26;;;;;;;7.50;4.75;;;;;;;15.58;100.00;101518.47;6286482;28;20052;-76
2023/09/02 02:45:29;;;;;;;8.98;5.22;;;;;;;15.65;100.00;101524.25;6287507;28;20048;-78
2023/09/02 02:48:31;;;;;;;7.50;4.40;;;;;;;15.63;100.00;101521.69;6286123;28;20388;-76
2023/09/02 02:51:32;;;;;;;6.03;4.30;;;;;;;15.66;100.00;101524.16;6275739;28;20441;-76
2023/09/02 02:54:37;;;;;;;7.03;4.53;;;;;;;15.62;100.00;101521.75;6283550;28;20048;-76
2023/09/02 02:57:38;;;;;;;7.25;4.10;;;;;;;15.58;100.00;101514.94;6299895;28;20071;-76
2023/09/02 03:00:42;;;;;;;7.47;4.70;;;;;;;15.50;100.00;101527.84;6300234;28;20052;-76
2023/09/02 03:03:43;;;;;;;6.80;4.03;;;;;;;15.47;100.00;101523.56;6300299;28;20044;-76
2023/09/02 03:06:45;;;;;;;7.68;5.13;;;;;;;15.51;100.00;101525.06;6300061;28;20052;-76
2023/09/02 03:09:46;;;;;;;6.85;4.28;;;;;;;15.53;100.00;101525.81;6299876;28;20045;-76
2023/09/02 03:12:48;;;;;;;9.07;5.40;;;;;;;15.50;100.00;101522.53;6300090;28;20123;-76
2023/09/02 03:15:51;;;;;;;7.82;4.13;;;;;;;15.47;100.00;101521.75;6299713;28;20457;-76
2023/09/02 03:18:53;;;;;;;7.78;4.97;;;;;;;15.48;100.00;101522.59;6300181;28;20046;-75
2023/09/02 03:21:54;;;;;;;7.40;4.38;;;;;;;15.42;100.00;101521.19;6299853;28;20049;-75
2023/09/02 03:24:56;;;;;;;8.48;5.30;;;;;;;15.35;100.00;101513.72;6299757;28;20045;-75
2023/09/02 03:27:57;;;;;;;10.02;4.85;;;;;;;15.47;100.00;101518.25;6299930;28;20048;-75
2023/09/02 03:31:06;;;;;;;7.00;5.00;;;;;;;15.44;100.00;101526.38;6301857;28;20053;-75
2023/09/02 03:34:07;;;;;;;9.38;6.00;;;;;;;15.45;100.00;101528.13;6305029;28;20056;-75
2023/09/02 03:37:09;;;;;;;7.80;4.28;;;;;;;15.46;100.00;101533.31;6304825;28;20044;-75
2023/09/02 03:40:11;;;;;;;6.85;4.40;;;;;;;15.39;100.00;101536.41;6304716;28;20052;-75
2023/09/02 03:43:12;;;;;;;6.95;4.43;;;;;;;15.37;100.00;101522.44;6304499;28;20437;-75
2023/09/02 03:46:15;;;;;;;6.40;3.97;;;;;;;15.40;100.00;101530.19;6304201;28;20052;-75
2023/09/02 03:49:16;;;;;;;6.55;4.47;;;;;;;15.37;100.00;101533.03;6304449;28;20432;-75
2023/09/02 03:52:18;;;;;;;9.55;5.32;;;;;;;15.34;100.00;101538.50;6304406;28;20075;-75
2023/09/02 03:55:19;;;;;;;9.77;5.13;;;;;;;15.34;100.00;101530.56;6304144;28;20049;-75
2023/09/02 03:58:21;;;;;;;14.38;4.93;;;;;;;15.37;100.00;101523.28;6304520;28;20044;-76
2023/09/02 04:01:23;;;;;;;5.85;4.20;;;;;;;15.39;100.00;101524.03;6304272;28;20048;-75
2023/09/02 04:04:25;;;;;;;10.10;4.95;;;;;;;15.43;100.00;101527.34;6304335;28;20059;-75
2023/09/02 04:07:27;;;;;;;7.07;4.13;;;;;;;15.42;100.00;101526.50;6303922;28;20197;-75
2023/09/02 04:10:28;;;;;;;6.45;3.72;;;;;;;15.42;100.00;101523.84;6303973;28;20045;-75
2023/09/02 04:13:30;;;;;;;7.35;4.13;;;;;;;15.42;100.00;101533.59;6304005;28;20048;-75
2023/09/02 04:16:33;;;;;;;11.35;5.60;;;;;;;15.37;100.00;101525.06;6303838;28;20053;-75
2023/09/02 04:19:35;;;;;;;12.18;5.40;;;;;;;15.39;100.00;101529.31;6303767;28;20098;-75
2023/09/02 04:22:36;;;;;;;10.50;5.65;;;;;;;15.40;100.00;101539.00;6303667;28;20048;-75
2023/09/02 04:25:47;;;;;;;9.95;4.63;;;;;;;15.37;100.00;101547.13;6303402;28;20045;-75
2023/09/02 04:28:49;;;;;;;6.00;3.20;;;;;;;15.36;100.00;101541.91;6303558;28;20052;-74
2023/09/02 04:31:53;;;;;;;5.85;3.72;;;;;;;15.37;100.00;101544.47;6303821;28;20051;-74
2023/09/02 04:34:54;;;;;;;6.82;4.30;;;;;;;15.41;100.00;101548.63;6303201;28;20052;-75
2023/09/02 04:37:56;;;;;;;5.65;3.17;;;;;;;15.41;100.00;101553.94;6303354;28;20052;-75
2023/09/02 04:40:58;;;;;;;6.65;4.10;;;;;;;15.41;100.00;101563.69;6302506;28;20433;-75
2023/09/02 04:43:59;;;;;;;5.88;3.97;;;;;;;15.41;100.00;101561.88;6303403;28;20058;-75
2023/09/02 04:47:02;;;;;;;7.97;4.60;;;;;;;15.42;100.00;101563.56;6302857;28;20044;-75
2023/09/02 04:50:04;;;;;;;6.05;4.50;;;;;;;15.42;100.00;101568.03;6303258;28;20062;-75
2023/09/02 04:53:07;;;;;;;10.95;4.80;;;;;;;15.39;100.00;101576.16;6303135;28;20072;-75
2023/09/02 04:56:09;;;;;;;8.63;3.88;;;;;;;15.33;100.00;101584.47;6302048;28;20047;-75
2023/09/02 04:59:10;;;;;;;6.78;4.00;;;;;;;15.35;100.00;101588.75;6299437;28;20052;-75
2023/09/02 05:02:13;;;;;;;7.68;3.53;;;;;;;15.37;100.00;101591.28;6302692;28;20075;-75
2023/09/02 05:05:16;;;;;;;7.15;3.50;;;;;;;15.39;100.00;101590.25;6302630;28;20059;-75
2023/09/02 05:08:18;;;;;;;5.53;3.50;;;;;;;15.43;100.00;101590.91;6302596;28;20052;-75
2023/09/02 05:11:19;;;;;;;6.55;4.05;;;;;;;15.48;100.00;101592.34;6302764;28;20049;-75
2023/09/02 05:14:21;;;;;;;9.52;3.88;;;;;;;15.47;100.00;101597.72;6302404;28;20044;-75
2023/09/02 05:17:23;;;;;;;6.93;3.55;;;;;;;15.50;100.00;101605.50;6302508;28;20045;-75
2023/09/02 05:20:25;;;;;;;6.78;3.97;;;;;;;15.57;100.00;101614.78;6302178;28;20385;-75
2023/09/02 05:23:26;;;;;;;13.27;6.35;;;;;;;15.60;100.00;101605.81;6302610;28;20045;-75
2023/09/02 05:26:28;;;;;;;10.40;5.40;;;;;;;15.60;100.00;101605.81;6301950;28;20040;-75
2023/09/02 05:29:29;;;;;;;7.38;4.22;;;;;;;15.61;100.00;101607.50;6302141;28;20428;-75
2023/09/02 05:32:32;;;;;;;10.32;4.05;;;;;;;15.61;100.00;101605.69;6302158;28;20130;-75
2023/09/02 05:35:33;;;;;;;7.55;4.53;;;;;;;15.66;100.00;101616.06;6301720;28;20049;-76
2023/09/02 05:38:34;;;;;;;5.32;3.50;;;;;;;15.67;100.00;101605.38;6302066;28;20045;-75
2023/09/02 05:41:36;;;;;;;10.02;4.40;;;;;;;15.68;100.00;101616.81;6301736;28;20447;-75
2023/09/02 05:44:38;;;;;;;4.72;3.35;;;;;;;15.81;100.00;101617.78;6301702;28;20153;-76
2023/09/02 05:47:40;;;;;;;10.98;3.70;;;;;;;15.75;100.00;101612.84;6301479;28;20442;-75
2023/09/02 05:50:42;;;;;;;5.32;3.33;;;;;;;15.74;100.00;101611.13;6301770;28;20056;-75
2023/09/02 05:53:46;;;;;;;6.30;2.90;;;;;;;15.75;100.00;101619.94;6300865;28;20048;-75
2023/09/02 05:56:47;;;;;;;4.07;2.65;;;;;;;15.83;100.00;101628.28;6301561;28;20051;-75
2023/09/02 05:59:49;;;;;;;7.90;4.22;;;;;;;15.84;100.00;101620.22;6301405;28;20045;-75
2023/09/02 06:02:51;;;;;;;5.97;3.97;;;;;;;15.81;100.00;101627.53;6301307;28;20049;-75
2023/09/02 06:05:53;;;;;;;6.35;4.05;;;;;;;15.83;100.00;101630.94;6301087;28;20048;-75
2023/09/02 06:08:54;;;;;;;9.55;4.03;;;;;;;15.87;100.00;101629.81;6300957;28;20048;-74
2023/09/02 06:11:56;;;;;;;5.63;3.17;;;;;;;15.92;100.00;101635.66;6299589;28;20045;-78
2023/09/02 06:14:57;;;;;;;7.95;3.72;;;;;;;15.94;100.00;101632.00;6294736;28;20044;-75
2023/09/02 06:18:00;;;;;;;7.65;3.30;;;;;;;16.00;100.00;101628.09;6299447;28;20349;-75
2023/09/02 06:21:08;;;;;;;6.28;3.17;;;;;;;16.09;100.00;101629.31;6299526;28;20048;-75
2023/09/02 06:24:10;;;;;;;8.75;4.18;;;;;;;16.14;100.00;101633.41;6300673;28;20040;-75
2023/09/02 06:27:11;;;;;;;7.53;3.95;;;;;;;16.22;100.00;101631.13;6298921;28;20047;-75
2023/09/02 06:30:13;;;;;;;14.35;4.30;;;;;;;16.25;100.00;101638.00;6289444;28;20052;-75
2023/09/02 06:33:16;;;;;;;6.15;3.95;;;;;;;16.24;100.00;101642.47;6291736;28;20059;-75
2023/09/02 06:36:19;;;;;;;7.20;3.53;;;;;;;16.32;100.00;101642.00;6300559;28;20052;-75
2023/09/02 06:39:20;;;;;;;6.50;3.95;;;;;;;16.37;100.00;101639.91;6296836;28;20045;-73
2023/09/02 06:42:23;;;;;;;5.68;3.95;;;;;;;16.36;100.00;101640.84;6288735;28;20048;-73
2023/09/02 06:45:26;;;;;;;7.60;3.47;;;;;;;16.41;100.00;101646.72;6291278;28;20044;-73
2023/09/02 06:48:29;;;;;;;6.53;3.45;;;;;;;16.46;100.00;101646.44;6289324;28;20183;-75
2023/09/02 06:51:30;;;;;;;8.27;3.83;;;;;;;16.48;100.00;101641.84;6293662;28;20353;-75
2023/09/02 06:54:31;;;;;;;6.72;4.05;;;;;;;16.54;100.00;101648.59;6299399;28;20047;-75
2023/09/02 06:57:33;;;;;;;7.00;4.25;;;;;;;16.60;100.00;101641.09;6299984;28;20123;-75
2023/09/02 07:00:36;;;;;;;7.00;4.20;;;;;;;16.67;100.00;101644.22;6299859;28;20044;-75
2023/09/02 07:03:38;;;;;;;6.82;4.28;;;;;;;16.71;100.00;101651.88;6299940;28;20072;-75
2023/09/02 07:06:40;;;;;;;5.82;3.50;;;;;;;16.78;100.00;101651.50;6299143;28;20052;-75
2023/09/02 07:09:41;;;;;;;6.57;3.83;;;;;;;16.82;100.00;101655.66;6294028;28;20049;-75
2023/09/02 07:12:43;;;;;;;7.85;4.60;;;;;;;16.85;100.00;101658.97;6298748;28;20044;-75
2023/09/02 07:15:44;;;;;;;7.50;4.97;;;;;;;16.79;100.00;101662.00;6298997;28;20058;-75
2023/09/02 07:18:47;;;;;;;8.95;4.28;;;;;;;16.86;100.00;101657.16;6299583;28;20455;-75
2023/09/02 07:21:48;;;;;;;9.25;5.35;;;;;;;16.91;100.00;101665.69;6300169;28;20056;-75
2023/09/02 07:24:49;;;;;;;12.23;5.32;;;;;;;16.93;100.00;101669.06;6299749;28;20049;-75
2023/09/02 07:27:51;;;;;;;10.40;5.63;;;;;;;16.98;100.00;101669.63;6299720;28;20051;-75
2023/09/02 07:30:52;;;;;;;9.98;5.25;;;;;;;17.18;100.00;101674.50;6299608;28;20052;-75
2023/09/02 07:33:55;;;;;;;7.63;4.70;;;;;;;17.19;100.00;101676.19;6299544;28;20076;-75
2023/09/02 07:36:56;;;;;;;9.98;4.85;;;;;;;17.33;100.00;101685.03;6299568;28;20044;-75
2023/09/02 07:39:58;;;;;;;10.73;4.13;;;;;;;17.27;100.00;101685.47;6299201;28;20059;-75
2023/09/02 07:43:03;;;;;;;9.63;5.38;;;;;;;17.38;100.00;101683.78;6299763;28;20455;-75
2023/09/02 07:46:04;;;;;;;11.05;5.88;;;;;;;17.36;100.00;101690.16;6299446;28;20044;-75
2023/09/02 07:49:07;;;;;;;12.30;6.00;;;;;;;17.36;100.00;101692.81;6299356;28;20052;-75
2023/09/02 07:52:09;;;;;;;8.23;4.45;;;;;;;17.47;100.00;101687.63;6299652;28;20044;-76
2023/09/02 07:55:10;;;;;;;10.50;5.68;;;;;;;17.57;100.00;101704.66;6299539;28;20055;-77
2023/09/02 07:58:11;;;;;;;10.52;5.65;;;;;;;17.57;100.00;101693.16;6299165;28;20041;-77
2023/09/02 08:01:13;;;;;;;5.97;4.15;;;;;;;17.56;100.00;101708.25;6299225;28;20057;-75
2023/09/02 08:04:15;;;;;;;8.85;5.72;;;;;;;17.52;100.00;101711.22;6299634;28;20059;-75
2023/09/02 08:07:17;;;;;;;9.77;6.25;;;;;;;17.45;100.00;101711.66;6299196;28;20056;-75
2023/09/02 08:10:18;;;;;;;9.57;6.13;;;;;;;17.41;100.00;101704.00;6296123;28;20356;-75
2023/09/02 08:13:20;;;;;;;14.15;6.63;;;;;;;17.43;100.00;101715.34;6288686;28;20052;-75
2023/09/02 08:16:21;;;;;;;10.10;6.57;;;;;;;17.47;100.00;101714.19;6289900;28;20048;-75
2023/09/02 08:19:24;;;;;;;10.57;5.10;;;;;;;17.51;100.00;101715.69;6300010;28;20444;-75
2023/09/02 08:22:25;;;;;;;9.68;5.50;;;;;;;17.59;100.00;101725.84;6299503;28;20083;-75
2023/09/02 08:25:27;;;;;;;14.38;6.88;;;;;;;17.60;100.00;101731.03;6293253;28;20049;-75
2023/09/02 08:28:28;;;;;;;10.15;5.60;;;;;;;17.63;100.00;101738.81;6303489;28;20052;-75
2023/09/02 08:31:29;;;;;;;9.57;5.25;;;;;;;17.87;100.00;101748.78;6302797;28;20048;-75
2023/09/02 08:34:32;;;;;;;7.57;4.82;;;;;;;18.04;100.00;101747.63;6302315;28;20055;-77
2023/09/02 08:37:34;;;;;;;9.48;5.47;;;;;;;18.20;100.00;101745.59;6299940;28;20044;-75
2023/09/02 08:40:43;;;;;;;8.93;5.90;;;;;;;18.32;100.00;101749.22;6302715;28;20044;-76
2023/09/02 08:43:44;;;;;;;11.77;6.32;;;;;;;18.42;100.00;101751.13;6294184;28;20044;-75
2023/09/02 08:46:47;;;;;;;7.88;5.43;;;;;;;18.56;100.00;101759.94;6301686;28;20472;-75
2023/09/02 08:49:50;;;;;;;13.25;6.00;;;;;;;18.66;100.00;101755.66;6302880;28;20522;-75
2023/09/02 08:52:52;;;;;;;11.00;6.07;;;;;;;18.71;100.00;101764.19;6303114;28;20452;-75
2023/09/02 08:55:55;;;;;;;7.72;5.07;;;;;;;18.75;100.00;101769.19;6301736;28;20138;-75
2023/09/02 08:58:56;;;;;;;9.63;5.03;;;;;;;18.80;100.00;101770.69;6302833;28;20067;-76
2023/09/02 09:01:58;;;;;;;7.20;4.95;;;;;;;18.85;100.00;101769.41;6303075;28;20463;-75
2023/09/02 09:05:03;;;;;;;7.88;4.93;;;;;;;18.89;100.00;101770.03;6302542;28;20048;-77
2023/09/02 09:08:05;;;;;;;8.63;5.32;;;;;;;18.85;100.00;101768.53;6302915;28;20080;-75
2023/09/02 09:11:07;;;;;;;13.35;6.05;;;;;;;18.79;100.00;101763.66;6302433;28;20048;-76
2023/09/02 09:14:11;;;;;;;10.40;4.90;;;;;;;18.84;100.00;101761.50;6302552;28;20055;-74
2023/09/02 09:17:14;;;;;;;8.68;5.13;;;;;;;19.05;100.00;101764.44;6302308;28;20467;-77
2023/09/02 09:20:17;;;;;;;9.98;4.93;;;;;;;19.23;100.00;101768.44;6302424;28;20056;-77
2023/09/02 09:23:19;;;;;;;6.85;4.72;;;;;;;19.21;100.00;101771.22;6302673;28;20044;-77
2023/09/02 09:26:22;;;;;;;5.65;3.55;;;;;;;19.27;100.00;101781.41;6301972;28;20352;-76
2023/09/02 09:29:23;;;;;;;6.88;4.30;;;;;;;19.32;100.00;101781.09;6301130;28;20439;-77
2023/09/02 09:32:25;;;;;;;8.20;4.68;;;;;;;19.16;100.00;101786.66;6302135;28;20071;-77
2023/09/02 09:35:28;;;;;;;10.98;5.95;;;;;;;19.11;100.00;101796.81;6301963;28;20052;-78
2023/09/02 09:38:37;;;;;;;7.80;4.97;;;;;;;19.08;100.00;101794.41;6301914;28;20459;-77
2023/09/02 09:41:46;;;;;;;6.95;4.60;;;;;;;19.14;100.00;101795.75;6302277;28;20049;-77
2023/09/02 09:45:00;;;;;;;10.13;5.30;;;;;;;18.98;100.00;101791.50;6301782;28;20474;-77
2023/09/02 09:48:10;;;;;;;13.43;5.90;;;;;;;18.82;100.00;101795.41;6301854;28;20321;-77
2023/09/02 09:51:22;;;;;;;;;;;;;;;18.87;100.00;101799.44;6302049;28;20471;-76
2023/09/02 09:54:35;;;;;;;8.18;4.78;;;;;;;18.90;100.00;101801.91;6301732;28;19928;-77
2023/09/02 09:57:38;;;;;;;6.95;4.85;;;;;;;18.94;100.00;101803.38;6301333;28;20476;-76
2023/09/02 10:00:39;;;;;;;9.15;4.05;;;;;;;19.01;100.00;101801.13;6301499;28;20052;-76
2023/09/02 10:03:41;;;;;;;6.70;3.80;;;;;;;19.05;100.00;101802.59;6301151;28;20075;-77
2023/09/02 10:06:46;;;;;;;6.28;3.10;;;;;;;19.09;100.00;101805.91;6294729;28;20055;-76
2023/09/02 10:09:47;;;;;;;5.40;3.55;;;;;;;19.14;100.00;101812.59;6298659;28;20433;-76
2023/09/02 10:12:53;;;;;;;9.50;4.45;;;;;;;19.19;100.00;101812.25;6296398;28;20044;-76
2023/09/02 10:15:54;;;;;;;8.30;4.03;;;;;;;19.15;100.00;101814.28;6297305;28;20060;-76
2023/09/02 10:18:56;;;;;;;7.47;4.70;;;;;;;19.04;100.00;101813.38;6298466;28;20036;-76
2023/09/02 10:21:59;;;;;;;5.80;3.47;;;;;;;19.14;100.00;101809.09;6286368;28;20049;-76
2023/09/02 10:25:10;;;;;;;7.90;4.13;;;;;;;19.18;100.00;101816.75;6291328;28;20452;-76
2023/09/02 10:28:13;;;;;;;8.18;3.97;;;;;;;19.31;100.00;101815.84;6299298;28;20417;-76
2023/09/02 10:31:20;;;;;;;5.65;3.33;;;;;;;19.34;100.00;101811.13;6300480;28;20135;-76
2023/09/02 10:34:27;;;;;;;6.63;4.53;;;;;;;19.39;100.00;101805.47;6292803;28;20049;-76
2023/09/02 10:37:38;;;;;;;9.15;3.92;;;;;;;19.49;100.00;101806.50;6300471;28;20049;-77
2023/09/02 10:40:41;;;;;;;8.07;4.30;;;;;;;19.53;100.00;101810.66;6300414;28;20064;-77
2023/09/02 10:43:45;;;;;;;4.93;3.47;;;;;;;19.66;100.00;101807.94;6300392;28;20045;-77
2023/09/02 10:46:47;;;;;;;4.32;3.08;;;;;;;19.72;100.00;101812.81;6299857;28;20047;-77
2023/09/02 10:49:49;;;;;;;5.90;2.78;;;;;;;19.76;100.00;101814.28;6300013;28;20131;-77
2023/09/02 10:52:53;;;;;;;10.50;3.83;;;;;;;19.81;100.00;101809.47;6300459;28;20045;-77
2023/09/02 10:56:02;;;;;;;5.00;3.30;;;;;;;19.83;100.00;101820.00;6299928;28;20056;-77
2023/09/02 10:59:05;;;;;;;7.10;3.78;;;;;;;19.67;100.00;101817.66;6294406;28;20045;-77
2023/09/02 11:02:07;;;;;;;5.93;3.92;;;;;;;19.62;100.00;101818.00;6300215;28;20044;-77
2023/09/02 11:05:09;;;;;;;5.85;4.07;;;;;;;19.61;100.00;101829.59;6295716;28;20071;-77
2023/09/02 11:08:46;;;;;;;5.93;3.25;;;;;;;19.69;100.00;101831.72;6295852;28;20041;-77
2023/09/02 11:12:12;;;;;;;6.72;3.00;;;;;;;19.73;100.00;101827.84;6296065;28;20045;-77
2023/09/02 11:15:18;;;;;;;6.10;4.05;;;;;;;19.79;100.00;101831.88;6282547;28;20056;-77
2023/09/02 11:18:32;;;;;;;8.77;4.45;;;;;;;20.02;100.00;101831.81;6291816;28;20317;-81
2023/09/02 11:21:37;;;;;;;8.07;5.00;;;;;;;20.17;100.00;101829.84;6297869;28;20345;-80
2023/09/02 11:24:48;;;;;;;7.22;4.35;;;;;;;20.19;100.00;101819.03;6299094;28;20071;-79
2023/09/02 11:27:50;;;;;;;8.65;4.15;;;;;;;20.31;100.00;101818.09;6299901;28;20052;-78
2023/09/02 11:31:03;;;;;;;7.40;3.97;;;;;;;20.39;100.00;101823.66;6299905;28;20052;-79
2023/09/02 11:34:05;;;;;;;5.75;3.42;;;;;;;20.32;100.00;101827.78;6300132;28;20052;-78
2023/09/02 11:37:06;;;;;;;6.97;3.58;;;;;;;20.32;100.00;101837.63;6299779;28;20056;-79
2023/09/02 11:40:16;;;;;;;11.00;5.10;;;;;;;20.22;100.00;101834.81;6300006;28;20048;-79
2023/09/02 11:43:20;;;;;;;7.18;3.67;;;;;;;20.12;100.00;101829.34;6299752;28;20048;-79
2023/09/02 11:46:22;;;;;;;7.30;3.42;;;;;;;20.19;100.00;101835.03;6298219;28;20289;-81
2023/09/02 11:49:24;;;;;;;4.70;2.92;;;;;;;20.32;100.00;101830.47;6299734;28;20047;-78
2023/09/02 11:52:27;;;;;;;5.68;3.10;;;;;;;20.40;100.00;101837.88;6293135;28;20051;-78
2023/09/02 11:55:30;;;;;;;6.18;3.22;;;;;;;20.54;100.00;101835.03;6303959;28;20052;-79
2023/09/02 11:58:31;;;;;;;4.55;3.08;;;;;;;20.78;100.00;101838.44;6303965;28;20048;-78
2023/09/02 12:01:33;;;;;;;7.88;4.15;;;;;;;21.04;100.00;101840.84;6301533;28;20052;-79
2023/09/02 12:04:38;;;;;;;5.35;3.58;;;;;;;21.49;100.00;101846.16;6304120;28;20056;-78
2023/09/02 12:07:42;;;;;;;10.65;3.70;;;;;;;21.30;100.00;101844.06;6304127;28;20045;-76
2023/09/02 12:10:46;;;;;;;6.60;3.13;;;;;;;21.32;100.00;101852.88;6304068;28;20044;-76
2023/09/02 12:13:48;;;;;;;6.63;3.22;;;;;;;21.46;100.00;101838.38;6304157;28;20048;-76
2023/09/02 12:16:50;;;;;;;7.00;3.90;;;;;;;21.35;100.00;101841.94;6303692;28;20063;-78
2023/09/02 12:19:51;;;;;;;4.45;3.10;;;;;;;21.24;100.00;101841.91;6304282;28;20056;-77
2023/09/02 12:22:53;;;;;;;5.10;3.08;;;;;;;21.03;100.00;101841.84;6297303;28;20049;-77
2023/09/02 12:26:06;;;;;;;5.00;3.00;;;;;;;20.81;100.00;101841.84;6300879;28;20066;-77
2023/09/02 12:29:15;;;;;;;5.72;2.80;;;;;;;20.62;100.00;101842.41;6300896;28;20065;-77
2023/09/02 12:32:16;;;;;;;8.17;3.50;;;;;;;20.43;100.00;101841.16;6303717;28;20045;-77
2023/09/02 12:35:18;;;;;;;8.63;2.85;;;;;;;20.34;100.00;101838.34;6303298;28;20352;-77
2023/09/02 12:38:20;;;;;;;9.93;3.47;;;;;;;20.26;100.00;101837.13;6302051;28;20045;-77
2023/09/02 12:41:23;;;;;;;3.85;2.67;;;;;;;20.38;100.00;101823.78;6301409;28;20053;-77
2023/09/02 12:44:24;;;;;;;3.47;2.40;;;;;;;20.47;100.00;101829.28;6302355;28;20059;-80
2023/09/02 12:47:27;;;;;;;5.47;2.70;;;;;;;20.52;100.00;101837.78;6302376;28;20131;-78
2023/09/02 12:50:31;;;;;;;6.18;3.15;;;;;;;20.66;100.00;101833.19;6302962;28;20052;-78
2023/09/02 12:53:33;;;;;;;4.28;2.35;;;;;;;20.67;100.00;101845.59;6303640;28;20059;-78
2023/09/02 12:56:35;;;;;;;4.00;2.80;;;;;;;20.62;100.00;101843.28;6302877;28;20432;-78
2023/09/02 12:59:37;;;;;;;8.85;3.42;;;;;;;20.54;100.00;101842.19;6303227;28;20048;-77
2023/09/02 13:02:38;;;;;;;6.50;3.22;;;;;;;20.46;100.00;101838.25;6302558;28;20048;-79
2023/09/02 13:05:40;;;;;;;5.45;3.35;;;;;;;20.45;100.00;101833.03;6302949;28;20052;-78
2023/09/02 13:08:43;;;;;;;3.85;2.70;;;;;;;20.56;100.00;101841.09;6326632;22;20049;-79
2023/09/02 13:11:48;;;;;;;6.97;3.05;;;;;;;20.57;100.00;101836.59;6301764;28;20440;-78
2023/09/02 13:14:49;;;;;;;17.60;3.67;;;;;;;20.57;100.00;101844.59;6302713;28;20048;-79
2023/09/02 13:17:51;;;;;;;4.28;2.60;;;;;;;20.54;100.00;101847.53;6302698;28;20059;-78
2023/09/02 13:20:52;;;;;;;7.65;3.38;;;;;;;20.41;100.00;101842.25;6302512;28;20055;-78
2023/09/02 13:23:54;;;;;;;3.63;2.47;;;;;;;20.36;100.00;101837.28;6302450;28;20048;-78
2023/09/02 13:26:59;;;;;;;4.65;3.08;;;;;;;20.42;100.00;101838.59;6302300;28;20074;-77
2023/09/02 13:30:01;;;;;;;4.45;3.13;;;;;;;20.70;100.00;101842.66;6302144;28;20055;-78
2023/09/02 13:33:02;;;;;;;7.93;2.58;;;;;;;21.29;100.00;101845.91;6300534;28;20048;-78
2023/09/02 13:36:04;;;;;;;4.55;2.83;;;;;;;21.48;100.00;101833.75;6296740;28;20059;-78
2023/09/02 13:39:05;;;;;;;10.60;2.80;;;;;;;21.46;100.00;101839.22;6301081;28;20356;-78
2023/09/02 13:42:15;;;;;;;5.70;2.88;;;;;;;21.27;100.00;101834.50;6299904;28;20056;-78
2023/09/02 13:45:26;;;;;;;3.60;2.60;;;;;;;21.08;100.00;101839.66;6301734;28;20052;-79
2023/09/02 13:48:29;;;;;;;5.38;2.30;;;;;;;21.03;100.00;101840.00;6301749;28;20051;-78
2023/09/02 13:51:31;;;;;;;3.13;2.50;;;;;;;20.90;100.00;101843.78;6300463;28;20349;-78
2023/09/02 13:54:33;;;;;;;6.88;2.58;;;;;;;20.97;100.00;101844.97;6294362;28;20348;-79
2023/09/02 13:57:35;;;;;;;5.15;2.65;;;;;;;20.92;100.00;101848.03;6301282;28;20048;-77
2023/09/02 14:00:40;;;;;;;5.90;2.75;;;;;;;20.89;100.00;101848.28;6301487;28;20051;-79